createdAt,value
2022-10-18T00:01:12.936Z,17.54
2022-10-18T00:03:40.864Z,17.56
2022-10-18T00:06:14.470Z,17.56
2022-10-18T00:08:42.339Z,17.56
2022-10-18T00:11:10.254Z,17.56
2022-10-18T00:13:38.980Z,17.54
2022-10-18T00:16:13.369Z,17.54
2022-10-18T00:18:42.146Z,17.56
2022-10-18T00:21:16.089Z,17.57
2022-10-18T00:23:44.723Z,17.54
2022-10-18T00:26:15.744Z,17.54
2022-10-18T00:28:45.303Z,17.55
2022-10-18T00:31:17.622Z,17.56
2022-10-18T00:33:47.150Z,17.52
2022-10-18T00:36:15.818Z,17.54
2022-10-18T00:38:44.479Z,17.54
2022-10-18T00:41:15.079Z,17.54
2022-10-18T00:43:54.772Z,17.55
2022-10-18T00:46:25.737Z,17.54
2022-10-18T00:48:56.496Z,17.55
2022-10-18T00:51:26.597Z,17.57
2022-10-18T00:53:54.503Z,17.56
2022-10-18T00:56:22.682Z,17.56
2022-10-18T00:58:52.044Z,17.58
2022-10-18T01:01:22.271Z,17.60
2022-10-18T01:03:55.133Z,17.60
2022-10-18T01:06:26.041Z,17.58
2022-10-18T01:09:06.349Z,17.59
2022-10-18T01:11:51.398Z,17.56
2022-10-18T01:14:32.451Z,17.56
2022-10-18T01:17:05.001Z,17.54
2022-10-18T01:20:14.282Z,17.53
2022-10-18T01:22:46.674Z,17.50
2022-10-18T01:25:30.762Z,17.51
2022-10-18T01:28:05.780Z,17.52
2022-10-18T01:30:40.123Z,17.52
2022-10-18T01:33:16.129Z,17.53
2022-10-18T01:35:50.399Z,17.52
2022-10-18T01:38:20.978Z,17.53
2022-10-18T01:40:52.228Z,17.55
2022-10-18T01:43:22.633Z,17.56
2022-10-18T01:45:54.734Z,17.58
2022-10-18T01:48:23.404Z,17.57
2022-10-18T01:50:51.285Z,17.58
2022-10-18T01:53:32.968Z,17.60
2022-10-18T01:56:28.534Z,17.56
2022-10-18T01:59:04.151Z,17.56
2022-10-18T02:01:42.206Z,17.56
2022-10-18T02:04:21.842Z,17.58
2022-10-18T02:06:57.308Z,17.57
2022-10-18T02:09:32.972Z,17.59
2022-10-18T02:12:03.775Z,17.59
2022-10-18T02:14:33.132Z,17.57
2022-10-18T02:17:07.160Z,17.55
2022-10-18T02:19:39.606Z,17.57
2022-10-18T02:22:09.503Z,17.57
2022-10-18T02:24:40.545Z,17.55
2022-10-18T02:27:08.856Z,17.56
2022-10-18T02:29:37.308Z,17.56
2022-10-18T02:32:12.033Z,17.55
2022-10-18T02:34:44.578Z,17.55
2022-10-18T02:37:13.037Z,17.56
2022-10-18T02:39:45.744Z,17.57
2022-10-18T02:42:15.103Z,17.56
2022-10-18T02:44:43.180Z,17.56
2022-10-18T02:47:13.576Z,17.56
2022-10-18T02:49:41.601Z,17.56
2022-10-18T02:52:09.437Z,17.56
2022-10-18T02:54:37.380Z,17.56
2022-10-18T02:57:07.364Z,17.55
2022-10-18T02:59:35.183Z,17.51
2022-10-18T03:02:03.033Z,17.51
2022-10-18T03:04:32.284Z,17.51
2022-10-18T03:07:00.247Z,17.47
2022-10-18T03:09:28.282Z,17.44
2022-10-18T03:11:56.174Z,17.42
2022-10-18T03:14:24.080Z,17.42
2022-10-18T03:16:54.068Z,17.42
2022-10-18T03:19:21.961Z,17.39
2022-10-18T03:21:51.219Z,17.35
2022-10-18T03:24:19.198Z,17.34
2022-10-18T03:26:47.263Z,17.31
2022-10-18T03:29:15.183Z,17.29
2022-10-18T03:31:43.311Z,17.29
2022-10-18T03:34:11.211Z,17.27
2022-10-18T03:36:42.184Z,17.24
2022-10-18T03:39:12.535Z,17.24
2022-10-18T03:41:40.423Z,17.22
2022-10-18T03:44:08.443Z,17.22
2022-10-18T03:46:36.246Z,17.21
2022-10-18T03:49:04.183Z,17.24
2022-10-18T03:51:32.063Z,17.23
2022-10-18T03:53:59.946Z,17.25
2022-10-18T03:56:29.428Z,17.31
2022-10-18T03:58:58.107Z,17.34
2022-10-18T04:01:26.062Z,17.35
2022-10-18T04:03:56.359Z,17.44
2022-10-18T04:06:24.276Z,17.50
2022-10-18T04:08:52.147Z,17.49
2022-10-18T04:11:22.394Z,17.55
2022-10-18T04:13:51.725Z,17.50
2022-10-18T04:16:19.713Z,17.50
2022-10-18T04:18:47.580Z,17.53
2022-10-18T04:21:15.660Z,17.54
2022-10-18T04:23:48.739Z,17.53
2022-10-18T04:26:17.458Z,17.55
2022-10-18T04:28:45.685Z,17.56
2022-10-18T04:31:15.048Z,17.57
2022-10-18T04:33:43.655Z,17.56
2022-10-18T04:36:11.907Z,17.55
2022-10-18T04:38:39.769Z,17.55
2022-10-18T04:41:09.887Z,17.47
2022-10-18T04:43:37.833Z,17.46
2022-10-18T04:46:05.709Z,17.48
2022-10-18T04:48:37.372Z,17.47
2022-10-18T04:51:08.247Z,17.47
2022-10-18T04:53:36.142Z,17.50
2022-10-18T04:56:04.027Z,17.51
2022-10-18T04:58:32.211Z,17.49
2022-10-18T05:01:00.083Z,17.52
2022-10-18T05:03:27.987Z,17.48
2022-10-18T05:06:01.918Z,17.47
2022-10-18T05:08:34.968Z,17.46
2022-10-18T05:11:03.647Z,17.43
2022-10-18T05:13:31.851Z,17.44
2022-10-18T05:16:00.747Z,17.43
2022-10-18T05:18:28.698Z,17.41
2022-10-18T05:20:58.048Z,17.40
2022-10-18T05:23:26.489Z,17.40
2022-10-18T05:25:54.914Z,17.38
2022-10-18T05:29:14.290Z,17.36
2022-10-18T05:31:42.390Z,17.36
2022-10-18T05:34:10.374Z,17.34
2022-10-18T05:36:39.517Z,17.34
2022-10-18T05:39:07.754Z,17.35
2022-10-18T05:41:35.707Z,17.33
2022-10-18T05:44:07.648Z,17.31
2022-10-18T05:46:37.997Z,17.31
2022-10-18T05:49:05.917Z,17.29
2022-10-18T05:51:33.866Z,17.29
2022-10-18T05:54:06.204Z,17.30
2022-10-18T05:56:34.466Z,17.29
2022-10-18T05:59:04.917Z,17.30
2022-10-18T06:01:32.900Z,17.30
2022-10-18T06:04:03.365Z,17.30
2022-10-18T06:06:32.463Z,17.29
2022-10-18T06:09:00.401Z,17.33
2022-10-18T06:11:29.954Z,17.36
2022-10-18T06:14:00.112Z,17.38
2022-10-18T06:16:32.262Z,17.39
2022-10-18T06:19:00.826Z,17.42
2022-10-18T06:21:28.679Z,17.41
2022-10-18T06:24:00.054Z,17.42
2022-10-18T06:26:29.884Z,17.43
2022-10-18T06:28:57.859Z,17.44
2022-10-18T06:31:25.869Z,17.46
2022-10-18T06:33:53.778Z,17.46
2022-10-18T06:36:22.945Z,17.48
2022-10-18T06:38:51.613Z,17.52
2022-10-18T06:41:20.408Z,17.49
2022-10-18T06:43:50.821Z,17.48
2022-10-18T06:46:18.680Z,17.49
2022-10-18T06:48:47.412Z,17.48
2022-10-18T06:51:15.306Z,17.49
2022-10-18T06:53:48.555Z,17.49
2022-10-18T06:56:21.222Z,17.48
2022-10-18T06:58:50.529Z,17.50
2022-10-18T07:01:21.603Z,17.50
2022-10-18T07:03:50.614Z,17.52
2022-10-18T07:06:19.808Z,17.53
2022-10-18T07:08:48.840Z,17.53
2022-10-18T07:11:18.693Z,17.56
2022-10-18T07:13:46.767Z,17.56
2022-10-18T07:16:18.933Z,17.57
2022-10-18T07:18:48.424Z,17.58
2022-10-18T07:21:18.037Z,17.62
2022-10-18T07:23:47.125Z,17.58
2022-10-18T07:26:17.097Z,17.62
2022-10-18T07:28:50.455Z,17.62
2022-10-18T07:31:19.635Z,17.66
2022-10-18T07:33:47.736Z,17.63
2022-10-18T07:36:15.577Z,17.62
2022-10-18T07:38:45.636Z,17.63
2022-10-18T07:41:14.725Z,17.66
2022-10-18T07:43:45.767Z,17.69
2022-10-18T07:46:14.792Z,17.71
2022-10-18T07:48:44.066Z,17.73
2022-10-18T07:51:12.562Z,17.77
2022-10-18T07:53:40.719Z,17.83
2022-10-18T07:56:11.878Z,17.89
2022-10-18T07:58:39.802Z,17.96
2022-10-18T08:01:09.504Z,17.95
2022-10-18T08:03:38.467Z,17.91
2022-10-18T08:06:09.645Z,17.94
2022-10-18T08:08:38.693Z,17.98
2022-10-18T08:11:08.705Z,17.98
2022-10-18T08:13:37.501Z,18.02
2022-10-18T08:16:07.838Z,18.06
2022-10-18T08:18:36.560Z,18.10
2022-10-18T08:21:10.407Z,18.18
2022-10-18T08:23:39.195Z,18.25
2022-10-18T08:26:10.937Z,18.34
2022-10-18T08:28:39.418Z,18.30
2022-10-18T08:31:08.884Z,18.31
2022-10-18T08:33:36.919Z,18.37
2022-10-18T08:36:06.706Z,18.44
2022-10-18T08:38:37.659Z,18.49
2022-10-18T08:41:33.769Z,18.55
2022-10-18T08:44:08.269Z,18.61
2022-10-18T08:46:38.489Z,18.63
2022-10-18T08:49:08.058Z,18.54
2022-10-18T08:51:41.035Z,18.55
2022-10-18T08:54:14.670Z,18.57
2022-10-18T08:56:46.654Z,18.55
2022-10-18T08:59:15.176Z,18.59
2022-10-18T09:01:54.581Z,18.65
2022-10-18T09:04:39.174Z,18.70
2022-10-18T09:07:22.917Z,18.77
2022-10-18T09:09:59.684Z,18.83
2022-10-18T09:12:43.671Z,18.92
2022-10-18T09:15:17.955Z,18.98
2022-10-18T09:18:05.092Z,19.07
2022-10-18T09:20:45.415Z,19.10
2022-10-18T09:23:21.164Z,19.09
2022-10-18T09:25:55.350Z,19.12
2022-10-18T09:28:34.414Z,19.22
2022-10-18T09:31:08.328Z,19.26
2022-10-18T09:33:44.798Z,19.30
2022-10-18T09:36:20.318Z,19.32
2022-10-18T09:38:52.611Z,19.33
2022-10-18T09:41:26.766Z,19.36
2022-10-18T09:43:59.085Z,19.42
2022-10-18T09:46:32.317Z,19.48
2022-10-18T09:49:05.256Z,19.55
2022-10-18T09:51:37.967Z,19.63
2022-10-18T09:54:22.996Z,19.66
2022-10-18T09:56:58.405Z,19.62
2022-10-18T09:59:38.779Z,19.68
2022-10-18T10:02:07.958Z,19.75
2022-10-18T10:04:35.709Z,19.79
2022-10-18T10:07:07.704Z,19.88
2022-10-18T10:09:42.738Z,20.00
2022-10-18T10:12:27.570Z,20.14
2022-10-18T10:14:55.439Z,20.28
2022-10-18T10:17:26.009Z,20.38
2022-10-18T10:19:59.891Z,20.42
2022-10-18T10:22:33.011Z,20.52
2022-10-18T10:25:03.615Z,20.52
2022-10-18T10:27:40.952Z,20.39
2022-10-18T10:30:24.673Z,20.30
2022-10-18T10:32:53.736Z,20.24
2022-10-18T10:35:41.475Z,20.29
2022-10-18T10:38:24.809Z,20.31
2022-10-18T10:40:52.989Z,20.28
2022-10-18T10:43:37.097Z,20.26
2022-10-18T10:46:09.631Z,20.27
2022-10-18T10:48:46.490Z,20.31
2022-10-18T10:51:15.215Z,20.35
2022-10-18T10:53:50.157Z,20.31
2022-10-18T10:56:23.080Z,20.35
2022-10-18T10:58:54.383Z,20.47
2022-10-18T11:01:28.878Z,20.61
2022-10-18T11:03:59.419Z,20.69
2022-10-18T11:06:36.790Z,20.70
2022-10-18T11:09:11.135Z,20.68
2022-10-18T11:11:46.772Z,20.57
2022-10-18T11:14:26.900Z,20.58
2022-10-18T11:17:07.742Z,20.62
2022-10-18T11:19:45.880Z,20.61
2022-10-18T11:22:17.538Z,20.54
2022-10-18T11:24:45.993Z,20.49
2022-10-18T11:27:21.657Z,20.37
2022-10-18T11:30:03.700Z,20.36
2022-10-18T11:32:41.295Z,20.39
2022-10-18T11:35:27.549Z,20.48
2022-10-18T11:38:11.006Z,20.54
2022-10-18T11:40:52.641Z,20.52
2022-10-18T11:43:30.344Z,20.54
2022-10-18T11:46:13.390Z,20.58
2022-10-18T11:49:08.495Z,20.63
2022-10-18T11:52:07.324Z,20.66
2022-10-18T11:54:59.009Z,20.79
2022-10-18T11:57:41.803Z,20.77
2022-10-18T12:00:20.479Z,20.77
2022-10-18T12:03:00.884Z,20.75
2022-10-18T12:05:30.596Z,20.81
2022-10-18T12:08:03.313Z,20.87
2022-10-18T12:10:44.435Z,20.92
2022-10-18T12:13:29.815Z,20.99
2022-10-18T12:15:58.471Z,20.99
2022-10-18T12:18:31.617Z,21.15
2022-10-18T12:21:00.937Z,21.28
2022-10-18T12:23:38.961Z,21.51
2022-10-18T12:26:09.138Z,21.69
2022-10-18T12:28:47.867Z,21.85
2022-10-18T12:31:23.148Z,22.04
2022-10-18T12:33:56.579Z,22.28
2022-10-18T12:36:42.539Z,22.47
2022-10-18T12:39:19.243Z,22.53
2022-10-18T12:41:57.305Z,22.68
2022-10-18T12:44:31.418Z,22.79
2022-10-18T12:47:01.758Z,22.89
2022-10-18T12:49:34.134Z,22.85
2022-10-18T12:52:04.807Z,22.67
2022-10-18T12:54:35.879Z,22.48
2022-10-18T12:57:06.150Z,22.39
2022-10-18T12:59:52.114Z,22.38
2022-10-18T13:02:32.434Z,22.51
2022-10-18T13:05:02.457Z,22.73
2022-10-18T13:07:40.800Z,22.89
2022-10-18T13:10:42.413Z,23.22
2022-10-18T13:13:40.638Z,23.19
2022-10-18T13:16:38.669Z,23.18
2022-10-18T13:19:32.742Z,23.45
2022-10-18T13:22:15.928Z,23.39
2022-10-18T13:24:47.402Z,23.18
2022-10-18T13:27:37.032Z,22.97
2022-10-18T13:30:26.402Z,22.85
2022-10-18T13:32:59.938Z,22.82
2022-10-18T13:35:47.426Z,22.84
2022-10-18T13:38:33.781Z,22.89
2022-10-18T13:41:03.452Z,22.97
2022-10-18T13:44:24.329Z,23.31
2022-10-18T13:47:11.580Z,23.71
2022-10-18T13:49:57.150Z,24.03
2022-10-18T13:52:38.739Z,24.27
2022-10-18T13:55:33.545Z,24.45
2022-10-18T13:58:10.994Z,24.49
2022-10-18T14:00:52.831Z,24.48
2022-10-18T14:04:09.344Z,24.48
2022-10-18T14:06:41.308Z,24.40
2022-10-18T14:09:26.289Z,24.27
2022-10-18T14:12:22.229Z,23.79
2022-10-18T14:14:55.540Z,23.58
2022-10-18T14:17:31.399Z,23.36
2022-10-18T14:20:13.046Z,23.09
2022-10-18T14:22:46.804Z,22.97
2022-10-18T14:25:22.482Z,22.96
2022-10-18T14:28:06.922Z,23.04
2022-10-18T14:30:37.076Z,23.13
2022-10-18T14:33:05.432Z,23.22
2022-10-18T14:35:35.238Z,23.31
2022-10-18T14:38:04.420Z,23.54
2022-10-18T14:40:36.350Z,24.49
2022-10-18T14:43:13.082Z,24.52
2022-10-18T14:45:41.865Z,24.22
2022-10-18T14:48:16.809Z,23.84
2022-10-18T14:50:47.274Z,23.74
2022-10-18T14:53:18.864Z,23.57
2022-10-18T14:55:55.728Z,23.44
2022-10-18T14:58:25.468Z,23.32
2022-10-18T15:00:54.624Z,23.17
2022-10-18T15:03:22.999Z,23.01
2022-10-18T15:05:57.014Z,22.80
2022-10-18T15:08:27.948Z,22.66
2022-10-18T15:10:56.586Z,22.59
2022-10-18T15:13:26.505Z,22.56
2022-10-18T15:15:55.317Z,22.49
2022-10-18T15:18:25.584Z,22.39
2022-10-18T15:21:22.080Z,22.40
2022-10-18T15:23:50.181Z,22.18
2022-10-18T15:26:24.088Z,22.04
2022-10-18T15:29:00.454Z,22.00
2022-10-18T15:31:35.576Z,21.91
2022-10-18T15:34:12.189Z,21.81
2022-10-18T15:36:40.315Z,21.69
2022-10-18T15:39:09.652Z,21.57
2022-10-18T15:41:40.566Z,21.45
2022-10-18T15:44:21.251Z,21.33
2022-10-18T15:46:53.851Z,21.21
2022-10-18T15:49:50.890Z,21.10
2022-10-18T15:52:42.362Z,20.97
2022-10-18T15:55:56.513Z,20.90
2022-10-18T15:58:26.412Z,20.73
2022-10-18T16:00:59.443Z,20.67
2022-10-18T16:03:28.673Z,20.60
2022-10-18T16:06:00.309Z,20.51
2022-10-18T16:08:30.439Z,20.41
2022-10-18T16:10:59.714Z,20.31
2022-10-18T16:13:27.879Z,20.20
2022-10-18T16:15:57.309Z,20.09
2022-10-18T16:18:26.041Z,19.99
2022-10-18T16:20:54.158Z,19.88
2022-10-18T16:23:23.889Z,19.79
2022-10-18T16:25:52.200Z,19.71
2022-10-18T16:28:22.648Z,19.63
2022-10-18T16:30:55.714Z,19.51
2022-10-18T16:33:25.240Z,19.41
2022-10-18T16:35:54.050Z,19.32
2022-10-18T16:38:31.092Z,19.23
2022-10-18T16:41:02.192Z,19.14
2022-10-18T16:43:30.155Z,19.06
2022-10-18T16:45:58.173Z,18.98
2022-10-18T16:48:28.552Z,18.91
2022-10-18T16:50:59.124Z,18.84
2022-10-18T16:53:27.970Z,18.77
2022-10-18T16:55:58.235Z,18.70
2022-10-18T16:58:27.859Z,18.61
2022-10-18T17:00:56.405Z,18.56
2022-10-18T17:03:24.763Z,18.47
2022-10-18T17:05:56.133Z,18.43
2022-10-18T17:08:25.486Z,18.38
2022-10-18T17:10:55.898Z,18.33
2022-10-18T17:13:24.967Z,18.27
2022-10-18T17:15:53.679Z,18.24
2022-10-18T17:18:26.271Z,18.19
2022-10-18T17:20:56.501Z,18.12
2022-10-18T17:23:24.429Z,18.04
2022-10-18T17:26:04.887Z,17.99
2022-10-18T17:28:35.378Z,17.94
2022-10-18T17:31:03.409Z,17.87
2022-10-18T17:33:31.304Z,17.82
2022-10-18T17:36:03.047Z,17.78
2022-10-18T17:38:35.136Z,17.74
2022-10-18T17:41:10.219Z,17.68
2022-10-18T17:43:41.489Z,17.62
2022-10-18T17:46:09.459Z,17.55
2022-10-18T17:48:37.264Z,17.50
2022-10-18T17:51:09.801Z,17.45
2022-10-18T17:53:37.927Z,17.41
2022-10-18T17:56:07.638Z,17.38
2022-10-18T17:58:35.810Z,17.34
2022-10-18T18:01:11.078Z,17.28
2022-10-18T18:03:41.513Z,17.24
2022-10-18T18:06:16.137Z,17.18
2022-10-18T18:08:44.149Z,17.16
2022-10-18T18:11:11.905Z,17.11
2022-10-18T18:13:40.038Z,17.05
2022-10-18T18:16:12.908Z,17.02
2022-10-18T18:18:40.837Z,17.01
2022-10-18T18:21:08.687Z,17.00
2022-10-18T18:23:38.000Z,16.98
2022-10-18T18:26:06.284Z,16.95
2022-10-18T18:28:34.646Z,16.92
2022-10-18T18:31:06.755Z,16.88
2022-10-18T18:33:35.002Z,16.86
2022-10-18T18:36:04.712Z,16.83
2022-10-18T18:38:38.236Z,16.85
2022-10-18T18:41:10.652Z,16.85
2022-10-18T18:43:42.663Z,16.83
2022-10-18T18:46:12.589Z,16.81
2022-10-18T18:48:41.739Z,16.77
2022-10-18T18:51:13.405Z,16.72
2022-10-18T18:53:42.054Z,16.70
2022-10-18T18:56:13.900Z,16.65
2022-10-18T18:58:44.020Z,16.63
2022-10-18T19:01:14.811Z,16.56
2022-10-18T19:03:42.954Z,16.53
2022-10-18T19:06:13.026Z,16.52
2022-10-18T19:08:41.659Z,16.52
2022-10-18T19:11:13.095Z,16.51
2022-10-18T19:13:41.023Z,16.50
2022-10-18T19:16:20.196Z,16.47
2022-10-18T19:18:52.983Z,16.46
2022-10-18T19:21:21.539Z,16.45
2022-10-18T19:23:50.060Z,16.41
2022-10-18T19:26:32.050Z,16.41
2022-10-18T19:29:07.407Z,16.37
2022-10-18T19:31:36.217Z,16.37
2022-10-18T19:34:08.648Z,16.38
2022-10-18T19:36:37.486Z,16.39
2022-10-18T19:39:06.861Z,16.40
2022-10-18T19:41:36.090Z,16.40
2022-10-18T19:44:04.073Z,16.40
2022-10-18T19:46:32.187Z,16.40
2022-10-18T19:48:59.924Z,16.39
2022-10-18T19:51:28.476Z,16.39
2022-10-18T19:53:57.658Z,16.38
2022-10-18T19:56:29.798Z,16.38
2022-10-18T19:58:59.836Z,16.38
2022-10-18T20:01:29.268Z,16.39
2022-10-18T20:03:57.744Z,16.41
2022-10-18T20:06:25.506Z,16.40
2022-10-18T20:08:56.270Z,16.42
2022-10-18T20:11:27.031Z,16.43
2022-10-18T20:13:55.341Z,16.43
2022-10-18T20:16:28.417Z,16.38
2022-10-18T20:18:58.145Z,16.41
2022-10-18T20:21:27.253Z,16.42
2022-10-18T20:23:57.521Z,16.43
2022-10-18T20:26:25.667Z,16.43
2022-10-18T20:28:58.319Z,16.45
2022-10-18T20:31:30.203Z,16.45
2022-10-18T20:34:05.518Z,16.47
2022-10-18T20:36:34.038Z,16.47
2022-10-18T20:39:01.981Z,16.49
2022-10-18T20:41:31.454Z,16.47
2022-10-18T20:44:00.556Z,16.47
2022-10-18T20:46:32.151Z,16.46
2022-10-18T20:49:00.437Z,16.44
2022-10-18T20:51:28.773Z,16.44
2022-10-18T20:53:57.210Z,16.41
2022-10-18T20:56:26.561Z,16.39
2022-10-18T20:58:57.112Z,16.37
2022-10-18T21:01:27.262Z,16.34
2022-10-18T21:03:58.467Z,16.27
2022-10-18T21:06:28.570Z,16.22
2022-10-18T21:08:58.674Z,16.19
2022-10-18T21:11:27.656Z,16.15
2022-10-18T21:13:58.889Z,16.15
2022-10-18T21:16:26.937Z,16.12
2022-10-18T21:19:03.078Z,16.10
2022-10-18T21:21:30.968Z,16.05
2022-10-18T21:24:02.416Z,16.00
2022-10-18T21:26:36.053Z,15.96
2022-10-18T21:29:05.072Z,15.94
2022-10-18T21:31:34.825Z,15.93
2022-10-18T21:34:05.876Z,15.93
2022-10-18T21:36:35.483Z,15.96
2022-10-18T21:39:03.861Z,16.00
2022-10-18T21:41:31.997Z,16.02
2022-10-18T21:44:00.085Z,16.04
2022-10-18T21:46:28.010Z,16.06
2022-10-18T21:48:57.879Z,16.07
2022-10-18T21:51:28.682Z,16.10
2022-10-18T21:53:59.320Z,16.12
2022-10-18T21:56:28.888Z,16.16
2022-10-18T21:58:59.869Z,16.21
2022-10-18T22:01:29.894Z,16.25
2022-10-18T22:03:57.909Z,16.29
2022-10-18T22:06:32.228Z,16.33
2022-10-18T22:09:02.293Z,16.35
2022-10-18T22:11:32.146Z,16.37
2022-10-18T22:14:00.036Z,16.39
2022-10-18T22:16:28.305Z,16.42
2022-10-18T22:18:59.087Z,16.44
2022-10-18T22:21:29.094Z,16.48
2022-10-18T22:23:58.489Z,16.49
2022-10-18T22:26:27.818Z,16.50
2022-10-18T22:28:57.365Z,16.51
2022-10-18T22:31:30.334Z,16.48
2022-10-18T22:34:01.302Z,16.48
2022-10-18T22:36:30.997Z,16.51
2022-10-18T22:38:59.092Z,16.53
2022-10-18T22:41:27.309Z,16.51
2022-10-18T22:43:57.395Z,16.57
2022-10-18T22:46:30.429Z,16.57
2022-10-18T22:48:58.265Z,16.58
2022-10-18T22:51:29.719Z,16.57
2022-10-18T22:53:57.658Z,16.57
2022-10-18T22:56:25.870Z,16.58
2022-10-18T22:58:53.745Z,16.58
2022-10-18T23:01:23.280Z,16.58
2022-10-18T23:03:54.844Z,16.59
2022-10-18T23:06:25.104Z,16.60
2022-10-18T23:08:56.195Z,16.61
2022-10-18T23:11:24.830Z,16.62
2022-10-18T23:13:55.000Z,16.62
2022-10-18T23:16:23.330Z,16.64
2022-10-18T23:18:52.237Z,16.63
2022-10-18T23:21:20.762Z,16.65
2022-10-18T23:23:51.964Z,16.65
2022-10-18T23:26:22.873Z,16.63
2022-10-18T23:28:52.256Z,16.65
2022-10-18T23:31:22.420Z,16.65
2022-10-18T23:33:52.524Z,16.63
2022-10-18T23:36:20.599Z,16.59
2022-10-18T23:38:48.326Z,16.57
2022-10-18T23:41:17.443Z,16.54
2022-10-18T23:43:46.975Z,16.55
2022-10-18T23:46:16.020Z,16.52
2022-10-18T23:48:44.206Z,16.52
2022-10-18T23:51:12.211Z,16.51
2022-10-18T23:53:39.990Z,16.51
2022-10-18T23:56:10.324Z,16.50
2022-10-18T23:58:39.015Z,16.50
